sensor_id;sensor_type;location;lat;lon;timestamp;P1;durP1;ratioP1;P2;durP2;ratioP2
27187;SDS011;14708;50.872;5.306;2022-12-07T00:01:11;8.65;;;4.20;;
27187;SDS011;14708;50.872;5.306;2022-12-07T00:03:37;7.68;;;4.40;;
27187;SDS011;14708;50.872;5.306;2022-12-07T00:06:05;6.90;;;4.40;;
27187;SDS011;14708;50.872;5.306;2022-12-07T00:08:32;9.48;;;4.63;;
27187;SDS011;14708;50.872;5.306;2022-12-07T00:13:31;7.63;;;3.88;;
27187;SDS011;14708;50.872;5.306;2022-12-07T00:16:01;8.48;;;4.15;;
27187;SDS011;14708;50.872;5.306;2022-12-07T00:18:28;6.63;;;4.10;;
27187;SDS011;14708;50.872;5.306;2022-12-07T00:20:58;7.53;;;4.20;;
27187;SDS011;14708;50.872;5.306;2022-12-07T00:23:25;7.22;;;4.25;;
27187;SDS011;14708;50.872;5.306;2022-12-07T00:25:51;7.75;;;4.35;;
27187;SDS011;14708;50.872;5.306;2022-12-07T00:28:16;8.95;;;3.80;;
27187;SDS011;14708;50.872;5.306;2022-12-07T00:30:42;7.13;;;3.70;;
27187;SDS011;14708;50.872;5.306;2022-12-07T00:33:07;5.65;;;4.00;;
27187;SDS011;14708;50.872;5.306;2022-12-07T00:35:33;6.53;;;3.75;;
27187;SDS011;14708;50.872;5.306;2022-12-07T00:37:58;6.00;;;3.80;;
27187;SDS011;14708;50.872;5.306;2022-12-07T00:40:24;7.00;;;4.40;;
27187;SDS011;14708;50.872;5.306;2022-12-07T00:42:50;6.13;;;4.00;;
27187;SDS011;14708;50.872;5.306;2022-12-07T00:45:15;6.47;;;3.75;;
27187;SDS011;14708;50.872;5.306;2022-12-07T00:47:41;5.72;;;3.70;;
27187;SDS011;14708;50.872;5.306;2022-12-07T00:50:06;7.10;;;4.13;;
27187;SDS011;14708;50.872;5.306;2022-12-07T00:52:32;6.07;;;4.03;;
27187;SDS011;14708;50.872;5.306;2022-12-07T00:54:58;5.07;;;3.67;;
27187;SDS011;14708;50.872;5.306;2022-12-07T00:57:23;6.65;;;3.92;;
27187;SDS011;14708;50.872;5.306;2022-12-07T00:59:49;8.73;;;3.95;;
27187;SDS011;14708;50.872;5.306;2022-12-07T01:02:14;6.57;;;3.75;;
27187;SDS011;14708;50.872;5.306;2022-12-07T01:04:40;6.65;;;3.72;;
27187;SDS011;14708;50.872;5.306;2022-12-07T01:07:05;7.55;;;4.07;;
27187;SDS011;14708;50.872;5.306;2022-12-07T01:09:31;9.13;;;4.10;;
27187;SDS011;14708;50.872;5.306;2022-12-07T01:11:57;5.60;;;3.70;;
27187;SDS011;14708;50.872;5.306;2022-12-07T01:14:23;5.65;;;3.40;;
27187;SDS011;14708;50.872;5.306;2022-12-07T01:16:48;6.18;;;3.75;;
27187;SDS011;14708;50.872;5.306;2022-12-07T01:19:14;5.78;;;3.92;;
27187;SDS011;14708;50.872;5.306;2022-12-07T01:21:39;6.18;;;3.67;;
27187;SDS011;14708;50.872;5.306;2022-12-07T01:24:06;5.55;;;3.55;;
27187;SDS011;14708;50.872;5.306;2022-12-07T01:26:35;9.07;;;4.65;;
27187;SDS011;14708;50.872;5.306;2022-12-07T01:29:01;7.43;;;4.20;;
27187;SDS011;14708;50.872;5.306;2022-12-07T01:31:27;6.35;;;3.72;;
27187;SDS011;14708;50.872;5.306;2022-12-07T01:33:55;6.00;;;3.50;;
27187;SDS011;14708;50.872;5.306;2022-12-07T01:36:23;5.47;;;3.87;;
27187;SDS011;14708;50.872;5.306;2022-12-07T01:38:51;6.07;;;3.80;;
27187;SDS011;14708;50.872;5.306;2022-12-07T01:41:24;6.53;;;3.72;;
27187;SDS011;14708;50.872;5.306;2022-12-07T01:44:08;5.37;;;3.33;;
27187;SDS011;14708;50.872;5.306;2022-12-07T01:47:01;5.82;;;3.42;;
27187;SDS011;14708;50.872;5.306;2022-12-07T01:49:39;6.10;;;3.55;;
27187;SDS011;14708;50.872;5.306;2022-12-07T01:52:21;5.13;;;3.30;;
27187;SDS011;14708;50.872;5.306;2022-12-07T01:54:56;5.53;;;3.28;;
27187;SDS011;14708;50.872;5.306;2022-12-07T01:57:25;5.75;;;3.33;;
27187;SDS011;14708;50.872;5.306;2022-12-07T01:59:51;6.57;;;3.53;;
27187;SDS011;14708;50.872;5.306;2022-12-07T02:02:19;6.40;;;3.67;;
27187;SDS011;14708;50.872;5.306;2022-12-07T02:04:51;5.40;;;3.08;;
27187;SDS011;14708;50.872;5.306;2022-12-07T02:07:19;5.03;;;3.35;;
27187;SDS011;14708;50.872;5.306;2022-12-07T02:09:46;6.55;;;3.70;;
27187;SDS011;14708;50.872;5.306;2022-12-07T02:12:11;6.80;;;3.78;;
27187;SDS011;14708;50.872;5.306;2022-12-07T02:14:37;5.80;;;3.85;;
27187;SDS011;14708;50.872;5.306;2022-12-07T02:17:06;4.68;;;3.40;;
27187;SDS011;14708;50.872;5.306;2022-12-07T02:19:47;4.60;;;3.20;;
27187;SDS011;14708;50.872;5.306;2022-12-07T02:28:14;6.78;;;3.67;;
27187;SDS011;14708;50.872;5.306;2022-12-07T02:30:51;7.43;;;3.80;;
27187;SDS011;14708;50.872;5.306;2022-12-07T02:36:17;6.72;;;3.42;;
27187;SDS011;14708;50.872;5.306;2022-12-07T02:38:51;5.30;;;3.05;;
27187;SDS011;14708;50.872;5.306;2022-12-07T02:41:29;5.38;;;3.63;;
27187;SDS011;14708;50.872;5.306;2022-12-07T02:44:10;4.60;;;3.35;;
27187;SDS011;14708;50.872;5.306;2022-12-07T02:46:40;6.80;;;3.65;;
27187;SDS011;14708;50.872;5.306;2022-12-07T02:49:11;7.65;;;3.58;;
27187;SDS011;14708;50.872;5.306;2022-12-07T02:51:41;5.20;;;3.20;;
27187;SDS011;14708;50.872;5.306;2022-12-07T02:54:12;4.85;;;2.90;;
27187;SDS011;14708;50.872;5.306;2022-12-07T02:56:43;6.50;;;3.05;;
27187;SDS011;14708;50.872;5.306;2022-12-07T02:59:25;5.00;;;3.30;;
27187;SDS011;14708;50.872;5.306;2022-12-07T03:10:30;6.25;;;3.30;;
27187;SDS011;14708;50.872;5.306;2022-12-07T03:15:55;5.97;;;3.47;;
27187;SDS011;14708;50.872;5.306;2022-12-07T03:18:33;4.68;;;3.15;;
27187;SDS011;14708;50.872;5.306;2022-12-07T03:21:06;4.80;;;3.50;;
27187;SDS011;14708;50.872;5.306;2022-12-07T03:23:38;5.13;;;3.40;;
27187;SDS011;14708;50.872;5.306;2022-12-07T03:26:08;4.55;;;3.53;;
27187;SDS011;14708;50.872;5.306;2022-12-07T03:28:40;4.28;;;3.05;;
27187;SDS011;14708;50.872;5.306;2022-12-07T03:31:19;4.25;;;2.70;;
27187;SDS011;14708;50.872;5.306;2022-12-07T03:36:23;4.03;;;3.17;;
27187;SDS011;14708;50.872;5.306;2022-12-07T03:41:32;4.78;;;3.28;;
27187;SDS011;14708;50.872;5.306;2022-12-07T03:44:01;4.85;;;2.78;;
27187;SDS011;14708;50.872;5.306;2022-12-07T03:52:19;4.25;;;3.20;;
27187;SDS011;14708;50.872;5.306;2022-12-07T03:57:33;5.35;;;3.40;;
27187;SDS011;14708;50.872;5.306;2022-12-07T04:00:00;4.40;;;3.00;;
27187;SDS011;14708;50.872;5.306;2022-12-07T04:02:30;5.28;;;3.42;;
27187;SDS011;14708;50.872;5.306;2022-12-07T04:04:58;5.25;;;3.20;;
27187;SDS011;14708;50.872;5.306;2022-12-07T04:07:24;5.32;;;3.20;;
27187;SDS011;14708;50.872;5.306;2022-12-07T04:09:49;5.00;;;3.15;;
27187;SDS011;14708;50.872;5.306;2022-12-07T04:12:15;4.35;;;3.20;;
27187;SDS011;14708;50.872;5.306;2022-12-07T04:14:41;6.03;;;3.70;;
27187;SDS011;14708;50.872;5.306;2022-12-07T04:17:06;4.90;;;3.10;;
27187;SDS011;14708;50.872;5.306;2022-12-07T04:19:33;4.40;;;3.08;;
27187;SDS011;14708;50.872;5.306;2022-12-07T04:22:00;5.53;;;2.97;;
27187;SDS011;14708;50.872;5.306;2022-12-07T04:24:27;4.75;;;3.08;;
27187;SDS011;14708;50.872;5.306;2022-12-07T04:26:52;3.97;;;2.90;;
27187;SDS011;14708;50.872;5.306;2022-12-07T04:29:19;5.40;;;3.08;;
27187;SDS011;14708;50.872;5.306;2022-12-07T04:31:45;4.57;;;2.78;;
27187;SDS011;14708;50.872;5.306;2022-12-07T04:34:11;4.18;;;2.95;;
27187;SDS011;14708;50.872;5.306;2022-12-07T04:36:37;3.80;;;3.03;;
27187;SDS011;14708;50.872;5.306;2022-12-07T04:39:04;3.67;;;2.80;;
27187;SDS011;14708;50.872;5.306;2022-12-07T04:41:30;3.97;;;3.00;;
27187;SDS011;14708;50.872;5.306;2022-12-07T04:43:57;5.38;;;3.30;;
27187;SDS011;14708;50.872;5.306;2022-12-07T04:46:24;5.03;;;3.23;;
27187;SDS011;14708;50.872;5.306;2022-12-07T04:48:51;4.30;;;3.10;;
27187;SDS011;14708;50.872;5.306;2022-12-07T04:51:19;4.03;;;2.97;;
27187;SDS011;14708;50.872;5.306;2022-12-07T04:53:54;3.97;;;2.70;;
27187;SDS011;14708;50.872;5.306;2022-12-07T04:56:21;3.58;;;2.55;;
27187;SDS011;14708;50.872;5.306;2022-12-07T04:58:47;3.20;;;2.67;;
27187;SDS011;14708;50.872;5.306;2022-12-07T05:01:14;4.47;;;3.17;;
27187;SDS011;14708;50.872;5.306;2022-12-07T05:03:41;4.57;;;2.75;;
27187;SDS011;14708;50.872;5.306;2022-12-07T05:06:07;3.33;;;2.58;;
27187;SDS011;14708;50.872;5.306;2022-12-07T05:08:33;3.25;;;2.58;;
27187;SDS011;14708;50.872;5.306;2022-12-07T05:11:00;4.13;;;2.70;;
27187;SDS011;14708;50.872;5.306;2022-12-07T05:13:26;3.85;;;2.83;;
27187;SDS011;14708;50.872;5.306;2022-12-07T05:15:52;3.20;;;2.65;;
27187;SDS011;14708;50.872;5.306;2022-12-07T05:18:17;4.75;;;2.95;;
27187;SDS011;14708;50.872;5.306;2022-12-07T05:20:43;4.15;;;2.78;;
27187;SDS011;14708;50.872;5.306;2022-12-07T05:23:09;3.72;;;2.38;;
27187;SDS011;14708;50.872;5.306;2022-12-07T05:25:36;3.60;;;2.50;;
27187;SDS011;14708;50.872;5.306;2022-12-07T05:28:02;3.58;;;3.08;;
27187;SDS011;14708;50.872;5.306;2022-12-07T05:30:28;3.80;;;3.10;;
27187;SDS011;14708;50.872;5.306;2022-12-07T05:32:54;4.30;;;2.50;;
27187;SDS011;14708;50.872;5.306;2022-12-07T05:35:20;5.30;;;2.92;;
27187;SDS011;14708;50.872;5.306;2022-12-07T05:37:46;5.25;;;3.10;;
27187;SDS011;14708;50.872;5.306;2022-12-07T05:40:13;3.78;;;2.75;;
27187;SDS011;14708;50.872;5.306;2022-12-07T05:42:40;3.58;;;2.67;;
27187;SDS011;14708;50.872;5.306;2022-12-07T05:45:07;4.75;;;3.05;;
27187;SDS011;14708;50.872;5.306;2022-12-07T05:47:33;4.07;;;2.85;;
27187;SDS011;14708;50.872;5.306;2022-12-07T05:49:59;3.88;;;3.00;;
27187;SDS011;14708;50.872;5.306;2022-12-07T05:52:25;3.50;;;2.70;;
27187;SDS011;14708;50.872;5.306;2022-12-07T05:54:51;3.85;;;2.60;;
27187;SDS011;14708;50.872;5.306;2022-12-07T05:57:17;4.82;;;2.90;;
27187;SDS011;14708;50.872;5.306;2022-12-07T05:59:43;5.32;;;2.88;;
27187;SDS011;14708;50.872;5.306;2022-12-07T06:02:10;4.35;;;2.88;;
27187;SDS011;14708;50.872;5.306;2022-12-07T06:04:38;2.78;;;2.38;;
27187;SDS011;14708;50.872;5.306;2022-12-07T06:07:06;3.20;;;2.70;;
27187;SDS011;14708;50.872;5.306;2022-12-07T06:09:32;4.13;;;2.42;;
27187;SDS011;14708;50.872;5.306;2022-12-07T06:11:58;3.53;;;2.80;;
27187;SDS011;14708;50.872;5.306;2022-12-07T06:14:43;3.00;;;2.70;;
27187;SDS011;14708;50.872;5.306;2022-12-07T06:17:09;5.30;;;2.53;;
27187;SDS011;14708;50.872;5.306;2022-12-07T06:19:37;4.65;;;2.58;;
27187;SDS011;14708;50.872;5.306;2022-12-07T06:22:03;3.05;;;2.42;;
27187;SDS011;14708;50.872;5.306;2022-12-07T06:24:29;4.53;;;2.47;;
27187;SDS011;14708;50.872;5.306;2022-12-07T06:26:56;3.42;;;2.33;;
27187;SDS011;14708;50.872;5.306;2022-12-07T06:29:21;4.22;;;2.70;;
27187;SDS011;14708;50.872;5.306;2022-12-07T06:31:47;5.40;;;2.78;;
27187;SDS011;14708;50.872;5.306;2022-12-07T06:34:15;5.72;;;2.40;;
27187;SDS011;14708;50.872;5.306;2022-12-07T06:36:42;4.25;;;2.88;;
27187;SDS011;14708;50.872;5.306;2022-12-07T06:39:08;5.32;;;2.22;;
27187;SDS011;14708;50.872;5.306;2022-12-07T06:41:35;3.70;;;2.65;;
27187;SDS011;14708;50.872;5.306;2022-12-07T06:44:07;2.28;;;1.73;;
27187;SDS011;14708;50.872;5.306;2022-12-07T06:46:33;4.10;;;2.30;;
27187;SDS011;14708;50.872;5.306;2022-12-07T06:49:00;3.47;;;2.38;;
27187;SDS011;14708;50.872;5.306;2022-12-07T06:51:26;4.38;;;2.63;;
27187;SDS011;14708;50.872;5.306;2022-12-07T06:53:52;4.85;;;2.53;;
27187;SDS011;14708;50.872;5.306;2022-12-07T06:56:17;3.67;;;2.25;;
27187;SDS011;14708;50.872;5.306;2022-12-07T06:58:45;4.15;;;2.40;;
27187;SDS011;14708;50.872;5.306;2022-12-07T07:01:12;4.32;;;2.42;;
27187;SDS011;14708;50.872;5.306;2022-12-07T07:03:39;21.23;;;5.10;;
27187;SDS011;14708;50.872;5.306;2022-12-07T07:06:05;20.02;;;4.22;;
27187;SDS011;14708;50.872;5.306;2022-12-07T07:08:32;9.55;;;4.03;;
27187;SDS011;14708;50.872;5.306;2022-12-07T07:10:58;15.75;;;4.50;;
27187;SDS011;14708;50.872;5.306;2022-12-07T07:13:24;26.17;;;6.50;;
27187;SDS011;14708;50.872;5.306;2022-12-07T07:15:50;20.60;;;6.20;;
27187;SDS011;14708;50.872;5.306;2022-12-07T07:18:15;13.60;;;4.55;;
27187;SDS011;14708;50.872;5.306;2022-12-07T07:20:41;13.32;;;3.83;;
27187;SDS011;14708;50.872;5.306;2022-12-07T07:23:06;18.33;;;5.88;;
27187;SDS011;14708;50.872;5.306;2022-12-07T07:25:32;19.80;;;5.65;;
27187;SDS011;14708;50.872;5.306;2022-12-07T07:27:58;17.27;;;6.32;;
27187;SDS011;14708;50.872;5.306;2022-12-07T07:30:24;15.45;;;5.78;;
27187;SDS011;14708;50.872;5.306;2022-12-07T07:32:50;15.10;;;4.95;;
27187;SDS011;14708;50.872;5.306;2022-12-07T07:35:16;15.95;;;5.10;;
27187;SDS011;14708;50.872;5.306;2022-12-07T07:37:42;14.82;;;6.00;;
27187;SDS011;14708;50.872;5.306;2022-12-07T07:40:08;17.27;;;5.85;;
27187;SDS011;14708;50.872;5.306;2022-12-07T07:42:36;13.77;;;5.28;;
27187;SDS011;14708;50.872;5.306;2022-12-07T07:45:04;16.88;;;5.40;;
27187;SDS011;14708;50.872;5.306;2022-12-07T07:47:30;21.30;;;5.63;;
27187;SDS011;14708;50.872;5.306;2022-12-07T07:49:56;18.60;;;5.68;;
27187;SDS011;14708;50.872;5.306;2022-12-07T07:52:22;15.68;;;4.80;;
27187;SDS011;14708;50.872;5.306;2022-12-07T07:54:48;18.90;;;5.30;;
27187;SDS011;14708;50.872;5.306;2022-12-07T07:57:13;14.88;;;5.70;;
27187;SDS011;14708;50.872;5.306;2022-12-07T07:59:40;11.48;;;4.65;;
27187;SDS011;14708;50.872;5.306;2022-12-07T08:02:07;12.20;;;4.45;;
27187;SDS011;14708;50.872;5.306;2022-12-07T08:04:41;14.70;;;4.97;;
27187;SDS011;14708;50.872;5.306;2022-12-07T08:07:07;24.17;;;7.22;;
27187;SDS011;14708;50.872;5.306;2022-12-07T08:09:32;19.10;;;6.25;;
27187;SDS011;14708;50.872;5.306;2022-12-07T08:11:58;22.63;;;6.07;;
27187;SDS011;14708;50.872;5.306;2022-12-07T08:14:24;23.70;;;6.95;;
27187;SDS011;14708;50.872;5.306;2022-12-07T08:16:49;25.30;;;7.65;;
27187;SDS011;14708;50.872;5.306;2022-12-07T08:19:15;20.75;;;6.72;;
27187;SDS011;14708;50.872;5.306;2022-12-07T08:21:41;24.30;;;6.75;;
27187;SDS011;14708;50.872;5.306;2022-12-07T08:24:06;22.65;;;6.80;;
27187;SDS011;14708;50.872;5.306;2022-12-07T08:26:35;23.77;;;6.88;;
27187;SDS011;14708;50.872;5.306;2022-12-07T08:29:00;24.38;;;6.60;;
27187;SDS011;14708;50.872;5.306;2022-12-07T08:31:26;21.42;;;6.78;;
27187;SDS011;14708;50.872;5.306;2022-12-07T08:33:52;25.48;;;6.88;;
27187;SDS011;14708;50.872;5.306;2022-12-07T08:36:18;27.45;;;6.72;;
27187;SDS011;14708;50.872;5.306;2022-12-07T08:38:44;21.02;;;6.05;;
27187;SDS011;14708;50.872;5.306;2022-12-07T08:41:10;23.65;;;6.82;;
27187;SDS011;14708;50.872;5.306;2022-12-07T08:43:35;31.40;;;7.20;;
27187;SDS011;14708;50.872;5.306;2022-12-07T08:49:00;39.65;;;7.03;;
27187;SDS011;14708;50.872;5.306;2022-12-07T08:51:29;25.40;;;6.43;;
27187;SDS011;14708;50.872;5.306;2022-12-07T08:53:55;22.13;;;6.00;;
27187;SDS011;14708;50.872;5.306;2022-12-07T08:56:22;21.08;;;6.40;;
27187;SDS011;14708;50.872;5.306;2022-12-07T08:58:49;30.38;;;6.45;;
27187;SDS011;14708;50.872;5.306;2022-12-07T09:01:15;27.38;;;7.32;;
27187;SDS011;14708;50.872;5.306;2022-12-07T09:03:41;19.77;;;6.15;;
27187;SDS011;14708;50.872;5.306;2022-12-07T09:06:07;29.10;;;6.35;;
27187;SDS011;14708;50.872;5.306;2022-12-07T09:08:34;25.17;;;6.65;;
27187;SDS011;14708;50.872;5.306;2022-12-07T09:11:03;42.03;;;6.60;;
27187;SDS011;14708;50.872;5.306;2022-12-07T09:13:29;24.33;;;7.25;;
27187;SDS011;14708;50.872;5.306;2022-12-07T09:15:55;21.10;;;6.40;;
27187;SDS011;14708;50.872;5.306;2022-12-07T09:18:21;29.63;;;6.15;;
27187;SDS011;14708;50.872;5.306;2022-12-07T09:20:46;31.90;;;6.72;;
27187;SDS011;14708;50.872;5.306;2022-12-07T09:23:12;27.90;;;6.75;;
27187;SDS011;14708;50.872;5.306;2022-12-07T09:25:38;22.38;;;5.03;;
27187;SDS011;14708;50.872;5.306;2022-12-07T09:28:06;25.10;;;6.03;;
27187;SDS011;14708;50.872;5.306;2022-12-07T09:30:32;19.35;;;6.13;;
27187;SDS011;14708;50.872;5.306;2022-12-07T09:33:05;24.25;;;6.50;;
27187;SDS011;14708;50.872;5.306;2022-12-07T09:35:31;22.73;;;6.38;;
27187;SDS011;14708;50.872;5.306;2022-12-07T09:37:57;19.80;;;5.70;;
27187;SDS011;14708;50.872;5.306;2022-12-07T09:40:22;21.23;;;5.88;;
27187;SDS011;14708;50.872;5.306;2022-12-07T09:42:53;31.20;;;8.90;;
27187;SDS011;14708;50.872;5.306;2022-12-07T09:45:25;26.58;;;7.65;;
27187;SDS011;14708;50.872;5.306;2022-12-07T09:47:56;39.80;;;9.23;;
27187;SDS011;14708;50.872;5.306;2022-12-07T09:50:23;41.70;;;8.98;;
27187;SDS011;14708;50.872;5.306;2022-12-07T09:52:51;37.95;;;9.13;;
27187;SDS011;14708;50.872;5.306;2022-12-07T09:55:26;35.40;;;9.27;;
27187;SDS011;14708;50.872;5.306;2022-12-07T09:57:53;40.85;;;9.60;;
27187;SDS011;14708;50.872;5.306;2022-12-07T10:00:23;61.00;;;10.82;;
27187;SDS011;14708;50.872;5.306;2022-12-07T10:02:53;34.17;;;9.25;;
27187;SDS011;14708;50.872;5.306;2022-12-07T10:05:32;40.80;;;9.82;;
27187;SDS011;14708;50.872;5.306;2022-12-07T10:08:07;49.15;;;9.88;;
27187;SDS011;14708;50.872;5.306;2022-12-07T10:10:37;41.60;;;9.15;;
27187;SDS011;14708;50.872;5.306;2022-12-07T10:13:08;49.33;;;9.65;;
27187;SDS011;14708;50.872;5.306;2022-12-07T10:23:34;41.33;;;8.02;;
27187;SDS011;14708;50.872;5.306;2022-12-07T10:29:03;36.17;;;8.60;;
27187;SDS011;14708;50.872;5.306;2022-12-07T10:31:40;38.05;;;8.18;;
27187;SDS011;14708;50.872;5.306;2022-12-07T10:34:12;29.38;;;7.97;;
27187;SDS011;14708;50.872;5.306;2022-12-07T10:36:51;36.92;;;8.75;;
27187;SDS011;14708;50.872;5.306;2022-12-07T10:39:22;38.92;;;8.68;;
27187;SDS011;14708;50.872;5.306;2022-12-07T10:45:06;26.02;;;7.70;;
27187;SDS011;14708;50.872;5.306;2022-12-07T10:47:36;26.95;;;7.43;;
27187;SDS011;14708;50.872;5.306;2022-12-07T10:50:13;22.08;;;6.55;;
27187;SDS011;14708;50.872;5.306;2022-12-07T10:53:01;25.80;;;7.43;;
27187;SDS011;14708;50.872;5.306;2022-12-07T11:01:30;31.52;;;6.00;;
27187;SDS011;14708;50.872;5.306;2022-12-07T11:04:19;26.85;;;6.57;;
27187;SDS011;14708;50.872;5.306;2022-12-07T11:07:01;23.97;;;6.47;;
27187;SDS011;14708;50.872;5.306;2022-12-07T11:12:43;24.50;;;5.80;;
27187;SDS011;14708;50.872;5.306;2022-12-07T11:17:45;22.05;;;5.75;;
27187;SDS011;14708;50.872;5.306;2022-12-07T11:34:28;20.48;;;5.28;;
27187;SDS011;14708;50.872;5.306;2022-12-07T11:37:18;28.70;;;5.65;;
27187;SDS011;14708;50.872;5.306;2022-12-07T11:42:27;38.45;;;5.70;;
27187;SDS011;14708;50.872;5.306;2022-12-07T11:47:54;19.42;;;5.25;;
27187;SDS011;14708;50.872;5.306;2022-12-07T11:55:41;27.30;;;5.85;;
27187;SDS011;14708;50.872;5.306;2022-12-07T12:06:43;41.10;;;7.13;;
27187;SDS011;14708;50.872;5.306;2022-12-07T12:22:45;28.13;;;7.57;;
27187;SDS011;14708;50.872;5.306;2022-12-07T12:25:30;30.90;;;7.63;;
27187;SDS011;14708;50.872;5.306;2022-12-07T12:28:19;26.25;;;7.97;;
27187;SDS011;14708;50.872;5.306;2022-12-07T12:30:45;24.65;;;6.80;;
27187;SDS011;14708;50.872;5.306;2022-12-07T12:33:30;27.20;;;6.53;;
27187;SDS011;14708;50.872;5.306;2022-12-07T12:44:37;25.48;;;8.85;;
27187;SDS011;14708;50.872;5.306;2022-12-07T12:47:04;30.55;;;8.70;;
27187;SDS011;14708;50.872;5.306;2022-12-07T12:52:52;22.23;;;6.82;;
27187;SDS011;14708;50.872;5.306;2022-12-07T12:55:27;30.13;;;9.15;;
27187;SDS011;14708;50.872;5.306;2022-12-07T12:58:21;27.33;;;9.27;;
27187;SDS011;14708;50.872;5.306;2022-12-07T13:08:49;24.58;;;6.88;;
27187;SDS011;14708;50.872;5.306;2022-12-07T13:13:56;26.40;;;6.28;;
27187;SDS011;14708;50.872;5.306;2022-12-07T13:16:58;15.27;;;5.63;;
27187;SDS011;14708;50.872;5.306;2022-12-07T13:25:03;20.20;;;5.82;;
27187;SDS011;14708;50.872;5.306;2022-12-07T13:27:47;19.73;;;6.55;;
27187;SDS011;14708;50.872;5.306;2022-12-07T13:30:23;38.10;;;9.82;;
27187;SDS011;14708;50.872;5.306;2022-12-07T13:32:53;24.25;;;7.82;;
27187;SDS011;14708;50.872;5.306;2022-12-07T13:35:31;25.35;;;7.32;;
27187;SDS011;14708;50.872;5.306;2022-12-07T13:38:00;20.73;;;7.13;;
27187;SDS011;14708;50.872;5.306;2022-12-07T13:40:28;45.85;;;8.77;;
27187;SDS011;14708;50.872;5.306;2022-12-07T13:42:57;32.58;;;8.05;;
27187;SDS011;14708;50.872;5.306;2022-12-07T13:45:29;34.25;;;8.13;;
27187;SDS011;14708;50.872;5.306;2022-12-07T13:50:56;1204.40;;;778.13;;
27187;SDS011;14708;50.872;5.306;2022-12-07T13:53:23;1014.45;;;691.13;;
27187;SDS011;14708;50.872;5.306;2022-12-07T13:55:49;810.92;;;565.92;;
27187;SDS011;14708;50.872;5.306;2022-12-07T13:58:14;814.38;;;565.08;;
27187;SDS011;14708;50.872;5.306;2022-12-07T14:00:40;800.08;;;557.30;;
27187;SDS011;14708;50.872;5.306;2022-12-07T14:05:42;773.75;;;540.42;;
27187;SDS011;14708;50.872;5.306;2022-12-07T14:10:42;758.03;;;527.63;;
27187;SDS011;14708;50.872;5.306;2022-12-07T14:15:54;735.70;;;514.65;;
27187;SDS011;14708;50.872;5.306;2022-12-07T14:21:17;685.05;;;471.65;;
27187;SDS011;14708;50.872;5.306;2022-12-07T14:26:38;632.97;;;433.20;;
27187;SDS011;14708;50.872;5.306;2022-12-07T14:31:53;565.58;;;384.13;;
27187;SDS011;14708;50.872;5.306;2022-12-07T14:34:20;532.88;;;368.85;;
27187;SDS011;14708;50.872;5.306;2022-12-07T14:36:46;534.33;;;365.70;;
27187;SDS011;14708;50.872;5.306;2022-12-07T14:39:12;511.23;;;350.98;;
27187;SDS011;14708;50.872;5.306;2022-12-07T14:41:37;479.00;;;331.35;;
27187;SDS011;14708;50.872;5.306;2022-12-07T14:44:18;470.75;;;316.98;;
27187;SDS011;14708;50.872;5.306;2022-12-07T14:46:46;449.20;;;298.30;;
27187;SDS011;14708;50.872;5.306;2022-12-07T14:49:12;441.42;;;301.13;;
27187;SDS011;14708;50.872;5.306;2022-12-07T14:51:38;430.60;;;293.63;;
27187;SDS011;14708;50.872;5.306;2022-12-07T14:54:06;426.83;;;290.75;;
27187;SDS011;14708;50.872;5.306;2022-12-07T14:56:37;425.30;;;291.02;;
27187;SDS011;14708;50.872;5.306;2022-12-07T14:59:02;414.73;;;282.35;;
27187;SDS011;14708;50.872;5.306;2022-12-07T15:01:28;419.38;;;279.33;;
27187;SDS011;14708;50.872;5.306;2022-12-07T15:03:53;417.65;;;288.20;;
27187;SDS011;14708;50.872;5.306;2022-12-07T15:06:19;421.83;;;283.23;;
27187;SDS011;14708;50.872;5.306;2022-12-07T15:08:44;411.92;;;278.67;;
27187;SDS011;14708;50.872;5.306;2022-12-07T15:11:14;412.95;;;282.60;;
27187;SDS011;14708;50.872;5.306;2022-12-07T15:13:40;394.48;;;267.73;;
27187;SDS011;14708;50.872;5.306;2022-12-07T15:16:25;392.95;;;264.17;;
27187;SDS011;14708;50.872;5.306;2022-12-07T15:18:50;391.73;;;267.80;;
27187;SDS011;14708;50.872;5.306;2022-12-07T15:21:16;395.55;;;268.08;;
27187;SDS011;14708;50.872;5.306;2022-12-07T15:23:42;389.67;;;262.45;;
27187;SDS011;14708;50.872;5.306;2022-12-07T15:26:09;393.15;;;258.83;;
27187;SDS011;14708;50.872;5.306;2022-12-07T15:28:36;375.58;;;247.52;;
27187;SDS011;14708;50.872;5.306;2022-12-07T15:31:01;366.33;;;239.57;;
27187;SDS011;14708;50.872;5.306;2022-12-07T15:33:27;354.17;;;241.85;;
27187;SDS011;14708;50.872;5.306;2022-12-07T15:35:52;371.15;;;246.23;;
27187;SDS011;14708;50.872;5.306;2022-12-07T15:38:18;279.52;;;173.80;;
27187;SDS011;14708;50.872;5.306;2022-12-07T15:40:46;329.10;;;216.73;;
27187;SDS011;14708;50.872;5.306;2022-12-07T15:43:12;310.67;;;203.80;;
27187;SDS011;14708;50.872;5.306;2022-12-07T15:45:56;323.90;;;212.25;;
27187;SDS011;14708;50.872;5.306;2022-12-07T15:48:37;322.00;;;209.02;;
27187;SDS011;14708;50.872;5.306;2022-12-07T15:51:06;308.83;;;192.85;;
27187;SDS011;14708;50.872;5.306;2022-12-07T15:53:34;298.92;;;191.90;;
27187;SDS011;14708;50.872;5.306;2022-12-07T15:56:00;285.83;;;180.45;;
27187;SDS011;14708;50.872;5.306;2022-12-07T15:58:31;271.52;;;167.52;;
27187;SDS011;14708;50.872;5.306;2022-12-07T16:00:56;284.73;;;176.63;;
27187;SDS011;14708;50.872;5.306;2022-12-07T16:03:22;271.85;;;168.52;;
27187;SDS011;14708;50.872;5.306;2022-12-07T16:05:51;270.17;;;167.55;;
27187;SDS011;14708;50.872;5.306;2022-12-07T16:08:18;272.92;;;167.77;;
27187;SDS011;14708;50.872;5.306;2022-12-07T16:10:43;261.13;;;164.75;;
27187;SDS011;14708;50.872;5.306;2022-12-07T16:13:10;261.02;;;164.55;;
27187;SDS011;14708;50.872;5.306;2022-12-07T16:15:53;253.88;;;161.73;;
27187;SDS011;14708;50.872;5.306;2022-12-07T16:18:19;236.90;;;149.13;;
27187;SDS011;14708;50.872;5.306;2022-12-07T16:20:47;244.20;;;157.35;;
27187;SDS011;14708;50.872;5.306;2022-12-07T16:23:13;243.20;;;154.88;;
27187;SDS011;14708;50.872;5.306;2022-12-07T16:25:39;249.27;;;155.77;;
27187;SDS011;14708;50.872;5.306;2022-12-07T16:28:04;246.45;;;155.98;;
27187;SDS011;14708;50.872;5.306;2022-12-07T16:30:30;242.50;;;149.95;;
27187;SDS011;14708;50.872;5.306;2022-12-07T16:32:56;239.80;;;152.43;;
27187;SDS011;14708;50.872;5.306;2022-12-07T16:35:21;239.88;;;153.05;;
27187;SDS011;14708;50.872;5.306;2022-12-07T16:37:47;232.90;;;151.23;;
27187;SDS011;14708;50.872;5.306;2022-12-07T16:40:12;229.50;;;148.98;;
27187;SDS011;14708;50.872;5.306;2022-12-07T16:42:38;237.77;;;149.43;;
27187;SDS011;14708;50.872;5.306;2022-12-07T16:45:04;210.82;;;135.88;;
27187;SDS011;14708;50.872;5.306;2022-12-07T16:47:30;223.27;;;142.15;;
27187;SDS011;14708;50.872;5.306;2022-12-07T16:49:56;216.60;;;138.10;;
27187;SDS011;14708;50.872;5.306;2022-12-07T16:52:21;192.70;;;125.70;;
27187;SDS011;14708;50.872;5.306;2022-12-07T16:54:47;103.82;;;64.63;;
27187;SDS011;14708;50.872;5.306;2022-12-07T16:57:16;161.82;;;102.38;;
27187;SDS011;14708;50.872;5.306;2022-12-07T16:59:42;183.13;;;118.07;;
27187;SDS011;14708;50.872;5.306;2022-12-07T17:02:10;179.50;;;117.50;;
27187;SDS011;14708;50.872;5.306;2022-12-07T17:04:37;191.90;;;120.43;;
27187;SDS011;14708;50.872;5.306;2022-12-07T17:07:04;188.40;;;119.30;;
27187;SDS011;14708;50.872;5.306;2022-12-07T17:09:30;181.60;;;120.28;;
27187;SDS011;14708;50.872;5.306;2022-12-07T17:11:56;172.65;;;110.95;;
27187;SDS011;14708;50.872;5.306;2022-12-07T17:14:22;173.77;;;115.88;;
27187;SDS011;14708;50.872;5.306;2022-12-07T17:17:06;174.68;;;116.78;;
27187;SDS011;14708;50.872;5.306;2022-12-07T17:19:32;173.85;;;112.68;;